sensor_id;sensor_type;location;lat;lon;timestamp;P1;durP1;ratioP1;P2;durP2;ratioP2
9234;SDS011;4652;42.716;23.218;2023-10-09T00:00:35;6.13;;;2.43;;
9234;SDS011;4652;42.716;23.218;2023-10-09T00:07:30;8.00;;;2.40;;
9234;SDS011;4652;42.716;23.218;2023-10-09T00:14:14;4.60;;;1.97;;
9234;SDS011;4652;42.716;23.218;2023-10-09T00:20:58;6.40;;;2.07;;
9234;SDS011;4652;42.716;23.218;2023-10-09T00:27:53;6.57;;;1.87;;
9234;SDS011;4652;42.716;23.218;2023-10-09T00:34:37;4.17;;;2.33;;
9234;SDS011;4652;42.716;23.218;2023-10-09T00:41:21;4.27;;;2.10;;
9234;SDS011;4652;42.716;23.218;2023-10-09T00:48:05;7.00;;;1.73;;
9234;SDS011;4652;42.716;23.218;2023-10-09T00:54:50;4.37;;;1.90;;
9234;SDS011;4652;42.716;23.218;2023-10-09T02:25:25;5.50;;;2.17;;
9234;SDS011;4652;42.716;23.218;2023-10-09T02:32:14;4.93;;;2.00;;
9234;SDS011;4652;42.716;23.218;2023-10-09T02:39:05;4.07;;;1.60;;
9234;SDS011;4652;42.716;23.218;2023-10-09T02:45:49;6.13;;;2.30;;
9234;SDS011;4652;42.716;23.218;2023-10-09T02:52:31;2.97;;;1.50;;
9234;SDS011;4652;42.716;23.218;2023-10-09T02:59:20;3.50;;;1.53;;
9234;SDS011;4652;42.716;23.218;2023-10-09T03:06:04;1.57;;;1.30;;
9234;SDS011;4652;42.716;23.218;2023-10-09T03:12:51;7.13;;;2.23;;
9234;SDS011;4652;42.716;23.218;2023-10-09T03:19:34;2.23;;;1.30;;
9234;SDS011;4652;42.716;23.218;2023-10-09T03:26:19;1.87;;;1.20;;
9234;SDS011;4652;42.716;23.218;2023-10-09T03:33:01;1.30;;;1.20;;
9234;SDS011;4652;42.716;23.218;2023-10-09T03:39:44;2.90;;;1.30;;
9234;SDS011;4652;42.716;23.218;2023-10-09T03:46:28;2.33;;;1.30;;
9234;SDS011;4652;42.716;23.218;2023-10-09T03:53:13;1.50;;;1.00;;
9234;SDS011;4652;42.716;23.218;2023-10-09T03:59:55;0.90;;;0.90;;
9234;SDS011;4652;42.716;23.218;2023-10-09T04:06:39;2.57;;;1.10;;
9234;SDS011;4652;42.716;23.218;2023-10-09T04:13:22;1.60;;;1.07;;
9234;SDS011;4652;42.716;23.218;2023-10-09T04:20:07;1.63;;;1.10;;
9234;SDS011;4652;42.716;23.218;2023-10-09T04:27:08;1.40;;;1.30;;
9234;SDS011;4652;42.716;23.218;2023-10-09T04:33:50;1.30;;;0.90;;
9234;SDS011;4652;42.716;23.218;2023-10-09T04:41:04;1.93;;;1.03;;
9234;SDS011;4652;42.716;23.218;2023-10-09T04:47:49;4.17;;;1.23;;
9234;SDS011;4652;42.716;23.218;2023-10-09T04:54:38;1.20;;;0.90;;
9234;SDS011;4652;42.716;23.218;2023-10-09T05:01:40;1.10;;;0.80;;
9234;SDS011;4652;42.716;23.218;2023-10-09T05:08:38;2.83;;;1.30;;
9234;SDS011;4652;42.716;23.218;2023-10-09T05:15:26;1.63;;;1.10;;
9234;SDS011;4652;42.716;23.218;2023-10-09T05:22:10;2.23;;;0.90;;
9234;SDS011;4652;42.716;23.218;2023-10-09T05:29:07;1.90;;;1.30;;
9234;SDS011;4652;42.716;23.218;2023-10-09T05:36:00;1.00;;;0.90;;
9234;SDS011;4652;42.716;23.218;2023-10-09T05:42:57;1.50;;;1.10;;
9234;SDS011;4652;42.716;23.218;2023-10-09T05:49:41;1.70;;;0.90;;
9234;SDS011;4652;42.716;23.218;2023-10-09T05:56:35;1.33;;;1.00;;
9234;SDS011;4652;42.716;23.218;2023-10-09T06:03:34;1.58;;;0.80;;
9234;SDS011;4652;42.716;23.218;2023-10-09T06:10:30;0.73;;;0.73;;
9234;SDS011;4652;42.716;23.218;2023-10-09T06:17:20;1.17;;;0.90;;
9234;SDS011;4652;42.716;23.218;2023-10-09T06:24:05;1.00;;;0.70;;
9234;SDS011;4652;42.716;23.218;2023-10-09T06:30:56;2.58;;;0.90;;
9234;SDS011;4652;42.716;23.218;2023-10-09T06:37:58;2.10;;;0.63;;
9234;SDS011;4652;42.716;23.218;2023-10-09T06:44:59;1.02;;;0.82;;
9234;SDS011;4652;42.716;23.218;2023-10-09T06:51:46;1.77;;;0.90;;
9234;SDS011;4652;42.716;23.218;2023-10-09T06:58:28;1.52;;;1.02;;
9234;SDS011;4652;42.716;23.218;2023-10-09T07:25:23;1.63;;;0.90;;
9234;SDS011;4652;42.716;23.218;2023-10-09T07:32:19;1.88;;;0.80;;
9234;SDS011;4652;42.716;23.218;2023-10-09T07:39:01;8.52;;;1.20;;
9234;SDS011;4652;42.716;23.218;2023-10-09T07:45:54;1.58;;;0.90;;
9234;SDS011;4652;42.716;23.218;2023-10-09T07:52:53;2.75;;;1.40;;
9234;SDS011;4652;42.716;23.218;2023-10-09T07:59:55;1.35;;;0.93;;
9234;SDS011;4652;42.716;23.218;2023-10-09T08:06:42;1.17;;;0.90;;
9234;SDS011;4652;42.716;23.218;2023-10-09T08:13:25;1.00;;;0.82;;
9234;SDS011;4652;42.716;23.218;2023-10-09T08:52:17;3.07;;;0.90;;
9234;SDS011;4652;42.716;23.218;2023-10-09T08:58:59;0.83;;;0.83;;
9234;SDS011;4652;42.716;23.218;2023-10-09T09:05:42;1.20;;;0.87;;
9234;SDS011;4652;42.716;23.218;2023-10-09T09:12:29;1.10;;;1.00;;
9234;SDS011;4652;42.716;23.218;2023-10-09T09:19:17;2.07;;;1.13;;
9234;SDS011;4652;42.716;23.218;2023-10-09T09:25:59;2.57;;;1.10;;
9234;SDS011;4652;42.716;23.218;2023-10-09T09:32:51;1.73;;;1.30;;
9234;SDS011;4652;42.716;23.218;2023-10-09T09:39:47;2.60;;;1.10;;
9234;SDS011;4652;42.716;23.218;2023-10-09T09:46:32;1.47;;;1.10;;
9234;SDS011;4652;42.716;23.218;2023-10-09T09:53:16;2.80;;;1.20;;
9234;SDS011;4652;42.716;23.218;2023-10-09T09:59:58;1.40;;;1.10;;
9234;SDS011;4652;42.716;23.218;2023-10-09T10:06:47;1.27;;;0.93;;
9234;SDS011;4652;42.716;23.218;2023-10-09T10:20:31;1.13;;;1.03;;
9234;SDS011;4652;42.716;23.218;2023-10-09T10:27:15;1.30;;;0.93;;
9234;SDS011;4652;42.716;23.218;2023-10-09T10:34:04;1.87;;;0.90;;
9234;SDS011;4652;42.716;23.218;2023-10-09T10:40:52;1.40;;;1.20;;
9234;SDS011;4652;42.716;23.218;2023-10-09T10:47:40;2.40;;;1.00;;
9234;SDS011;4652;42.716;23.218;2023-10-09T10:54:23;2.47;;;1.07;;
9234;SDS011;4652;42.716;23.218;2023-10-09T11:01:25;3.40;;;1.27;;
9234;SDS011;4652;42.716;23.218;2023-10-09T11:08:30;1.60;;;1.10;;
9234;SDS011;4652;42.716;23.218;2023-10-09T11:15:13;0.90;;;0.90;;
9234;SDS011;4652;42.716;23.218;2023-10-09T11:22:10;0.93;;;0.80;;
9234;SDS011;4652;42.716;23.218;2023-10-09T11:33:20;2.20;;;1.00;;
9234;SDS011;4652;42.716;23.218;2023-10-09T11:40:02;1.10;;;0.80;;
9234;SDS011;4652;42.716;23.218;2023-10-09T11:47:02;2.07;;;1.20;;
9234;SDS011;4652;42.716;23.218;2023-10-09T11:54:04;3.17;;;1.30;;
9234;SDS011;4652;42.716;23.218;2023-10-09T12:00:51;1.27;;;1.17;;
9234;SDS011;4652;42.716;23.218;2023-10-09T12:07:36;2.53;;;1.40;;
9234;SDS011;4652;42.716;23.218;2023-10-09T12:14:20;2.30;;;1.00;;
9234;SDS011;4652;42.716;23.218;2023-10-09T12:21:04;1.40;;;0.93;;
9234;SDS011;4652;42.716;23.218;2023-10-09T12:27:46;1.77;;;1.20;;
9234;SDS011;4652;42.716;23.218;2023-10-09T12:34:30;1.97;;;0.87;;
9234;SDS011;4652;42.716;23.218;2023-10-09T12:41:12;4.43;;;1.10;;
9234;SDS011;4652;42.716;23.218;2023-10-09T12:48:05;2.33;;;1.10;;
9234;SDS011;4652;42.716;23.218;2023-10-09T12:54:51;2.80;;;1.13;;
9234;SDS011;4652;42.716;23.218;2023-10-09T14:32:09;4.20;;;2.07;;
9234;SDS011;4652;42.716;23.218;2023-10-09T14:38:53;4.83;;;1.83;;
9234;SDS011;4652;42.716;23.218;2023-10-09T14:45:36;4.13;;;2.57;;
9234;SDS011;4652;42.716;23.218;2023-10-09T14:52:20;3.67;;;2.53;;
9234;SDS011;4652;42.716;23.218;2023-10-09T14:59:04;6.37;;;2.83;;
9234;SDS011;4652;42.716;23.218;2023-10-09T15:05:46;5.80;;;3.10;;
9234;SDS011;4652;42.716;23.218;2023-10-09T15:12:30;4.30;;;2.40;;
9234;SDS011;4652;42.716;23.218;2023-10-09T15:19:12;47.00;;;5.00;;
9234;SDS011;4652;42.716;23.218;2023-10-09T15:25:56;28.30;;;3.83;;
9234;SDS011;4652;42.716;23.218;2023-10-09T15:32:39;13.93;;;3.40;;
9234;SDS011;4652;42.716;23.218;2023-10-09T15:39:22;9.70;;;2.67;;
9234;SDS011;4652;42.716;23.218;2023-10-09T15:46:04;3.37;;;2.33;;
9234;SDS011;4652;42.716;23.218;2023-10-09T15:52:56;6.97;;;2.40;;
9234;SDS011;4652;42.716;23.218;2023-10-09T15:59:38;3.67;;;2.33;;
9234;SDS011;4652;42.716;23.218;2023-10-09T16:06:20;7.53;;;2.20;;
9234;SDS011;4652;42.716;23.218;2023-10-09T16:13:08;15.40;;;3.57;;
9234;SDS011;4652;42.716;23.218;2023-10-09T16:19:53;9.97;;;2.63;;
9234;SDS011;4652;42.716;23.218;2023-10-09T16:26:35;9.07;;;2.70;;
9234;SDS011;4652;42.716;23.218;2023-10-09T18:22:23;5.63;;;2.92;;
9234;SDS011;4652;42.716;23.218;2023-10-09T18:29:06;5.70;;;2.90;;
9234;SDS011;4652;42.716;23.218;2023-10-09T18:35:52;7.23;;;2.87;;
9234;SDS011;4652;42.716;23.218;2023-10-09T18:42:35;6.97;;;2.70;;
9234;SDS011;4652;42.716;23.218;2023-10-09T18:49:19;7.37;;;2.60;;
9234;SDS011;4652;42.716;23.218;2023-10-09T18:56:01;7.47;;;2.90;;
9234;SDS011;4652;42.716;23.218;2023-10-09T19:08:02;5.53;;;2.80;;
9234;SDS011;4652;42.716;23.218;2023-10-09T19:14:45;9.93;;;3.00;;
9234;SDS011;4652;42.716;23.218;2023-10-09T19:21:27;6.93;;;3.20;;
9234;SDS011;4652;42.716;23.218;2023-10-09T19:28:12;7.83;;;3.60;;
9234;SDS011;4652;42.716;23.218;2023-10-09T19:34:55;4.07;;;2.60;;
9234;SDS011;4652;42.716;23.218;2023-10-09T19:57:39;4.20;;;2.70;;
